createdAt,value
2022-09-23T00:01:17.534Z,98084.78
2022-09-23T00:03:46.753Z,98081.81
2022-09-23T00:06:16.136Z,98081.81
2022-09-23T00:08:43.508Z,98078.28
2022-09-23T00:11:12.497Z,98081.56
2022-09-23T00:13:42.006Z,98074.00
2022-09-23T00:16:12.488Z,98069.13
2022-09-23T00:18:39.931Z,98072.63
2022-09-23T00:21:10.392Z,98069.13
2022-09-23T00:23:38.164Z,98065.38
2022-09-23T00:26:08.193Z,98061.03
2022-09-23T00:28:35.368Z,98065.34
2022-09-23T00:31:03.046Z,98067.50
2022-09-23T00:33:30.322Z,98062.94
2022-09-23T00:35:59.468Z,98059.66
2022-09-23T00:38:28.851Z,98062.94
2022-09-23T00:40:56.570Z,98059.97
2022-09-23T00:43:37.551Z,98064.84
2022-09-23T00:46:07.706Z,98064.00
2022-09-23T00:48:37.039Z,98060.25
2022-09-23T00:51:06.809Z,98057.00
2022-09-23T00:53:35.827Z,98054.03
2022-09-23T00:56:05.955Z,98050.81
2022-09-23T00:58:35.721Z,98049.19
2022-09-23T01:01:03.503Z,98050.28
2022-09-23T01:03:30.896Z,98049.72
2022-09-23T01:05:58.436Z,98041.38
2022-09-23T01:08:27.248Z,98052.44
2022-09-23T01:11:07.249Z,98036.00
2022-09-23T01:13:43.745Z,98038.38
2022-09-23T01:16:18.296Z,98042.72
2022-09-23T01:18:51.620Z,98045.41
2022-09-23T01:21:33.883Z,98040.03
2022-09-23T01:24:24.656Z,98034.09
2022-09-23T01:27:23.885Z,98032.22
2022-09-23T01:30:07.433Z,98029.53
2022-09-23T01:33:01.925Z,98023.88
2022-09-23T01:35:40.351Z,98025.47
2022-09-23T01:38:17.503Z,98017.91
2022-09-23T01:40:50.928Z,98018.75
2022-09-23T01:43:24.181Z,98018.22
2022-09-23T01:45:57.207Z,98017.69
2022-09-23T01:48:31.602Z,98016.59
2022-09-23T01:51:04.752Z,98008.22
2022-09-23T01:53:38.999Z,98012.56
2022-09-23T01:56:11.576Z,98012.03
2022-09-23T01:58:45.118Z,98013.34
2022-09-23T02:01:18.995Z,98009.31
2022-09-23T02:03:52.740Z,98009.84
2022-09-23T02:06:23.148Z,98008.50
2022-09-23T02:08:55.380Z,98009.03
2022-09-23T02:11:22.998Z,98008.22
2022-09-23T02:13:54.137Z,98011.72
2022-09-23T02:16:28.296Z,98006.63
2022-09-23T02:19:03.081Z,98003.09
2022-09-23T02:21:35.236Z,98000.41
2022-09-23T02:24:09.811Z,98000.66
2022-09-23T02:26:45.727Z,97999.34
2022-09-23T02:29:20.396Z,98005.81
2022-09-23T02:31:56.405Z,98005.53
2022-09-23T02:34:35.017Z,98008.78
2022-09-23T02:37:11.466Z,98003.41
2022-09-23T02:39:51.805Z,98010.16
2022-09-23T02:42:23.804Z,98006.38
2022-09-23T02:44:51.148Z,97999.06
2022-09-23T02:47:22.688Z,97996.94
2022-09-23T02:49:51.308Z,97994.50
2022-09-23T02:52:18.408Z,97995.31
2022-09-23T02:54:45.501Z,97989.91
2022-09-23T02:57:12.625Z,97990.44
2022-09-23T02:59:40.632Z,97993.41
2022-09-23T03:02:27.070Z,97988.59
2022-09-23T03:05:07.041Z,97985.31
2022-09-23T03:07:47.651Z,97980.19
2022-09-23T03:10:21.199Z,97981.56
2022-09-23T03:12:58.656Z,97982.63
2022-09-23T03:15:34.960Z,97978.59
2022-09-23T03:18:11.125Z,97977.53
2022-09-23T03:20:45.812Z,97975.91
2022-09-23T03:23:14.942Z,97976.69
2022-09-23T03:25:46.637Z,97978.88
2022-09-23T03:28:16.323Z,97986.44
2022-09-23T03:30:44.348Z,97974.03
2022-09-23T03:33:13.841Z,97970.28
2022-09-23T03:35:48.813Z,97976.47
2022-09-23T03:38:16.925Z,97972.69
2022-09-23T03:40:46.254Z,97975.38
2022-09-23T03:43:14.110Z,97969.44
2022-09-23T03:45:41.438Z,97964.88
2022-09-23T03:48:08.952Z,97973.50
2022-09-23T03:50:36.075Z,97967.00
2022-09-23T03:53:04.495Z,97968.13
2022-09-23T03:55:31.575Z,97964.06
2022-09-23T03:57:58.679Z,97966.22
2022-09-23T04:00:26.260Z,97960.03
2022-09-23T04:02:53.390Z,97959.19
2022-09-23T04:05:20.496Z,97959.50
2022-09-23T04:07:47.686Z,97950.56
2022-09-23T04:10:16.216Z,97955.44
2022-09-23T04:12:43.733Z,97939.81
2022-09-23T04:15:11.112Z,97946.00
2022-09-23T04:17:38.216Z,97944.66
2022-09-23T04:20:06.598Z,97938.97
2022-09-23T04:22:34.091Z,97933.56
2022-09-23T04:25:01.171Z,97934.16
2022-09-23T04:27:31.296Z,97932.53
2022-09-23T04:30:01.525Z,97933.03
2022-09-23T04:32:28.593Z,97938.97
2022-09-23T04:34:55.684Z,97933.31
2022-09-23T04:37:22.758Z,97942.50
2022-09-23T04:39:49.840Z,97940.63
2022-09-23T04:42:16.988Z,97947.88
2022-09-23T04:44:45.395Z,97938.97
2022-09-23T04:47:12.655Z,97942.78
2022-09-23T04:49:40.662Z,97951.66
2022-09-23T04:52:07.767Z,97943.31
2022-09-23T04:54:34.832Z,97960.28
2022-09-23T04:57:01.945Z,97952.72
2022-09-23T04:59:29.027Z,97953.03
2022-09-23T05:01:57.528Z,97947.63
2022-09-23T05:04:24.681Z,97947.63
2022-09-23T05:06:51.804Z,97957.31
2022-09-23T05:09:19.249Z,97960.28
2022-09-23T05:11:46.593Z,97957.88
2022-09-23T05:14:13.893Z,97957.59
2022-09-23T05:16:41.062Z,97962.72
2022-09-23T05:19:09.625Z,97966.22
2022-09-23T05:21:36.740Z,97962.72
2022-09-23T05:24:04.176Z,97960.56
2022-09-23T05:26:32.933Z,97960.28
2022-09-23T05:29:00.366Z,97967.28
2022-09-23T05:31:29.446Z,97960.03
2022-09-23T05:33:58.065Z,97955.44
2022-09-23T05:36:28.067Z,97960.56
2022-09-23T05:38:55.897Z,97965.41
2022-09-23T05:41:23.699Z,97962.16
2022-09-23T05:43:50.955Z,97975.09
2022-09-23T05:46:20.087Z,97971.63
2022-09-23T05:48:47.269Z,97964.06
2022-09-23T05:51:15.918Z,97964.59
2022-09-23T05:53:44.824Z,97968.13
2022-09-23T05:56:12.502Z,97967.03
2022-09-23T05:58:40.151Z,97967.03
2022-09-23T06:01:11.424Z,97965.41
2022-09-23T06:03:38.815Z,97977.84
2022-09-23T06:06:06.814Z,97976.47
2022-09-23T06:08:34.130Z,97975.13
2022-09-23T06:11:06.620Z,97971.59
2022-09-23T06:13:34.576Z,97969.22
2022-09-23T06:16:02.363Z,97968.38
2022-09-23T06:18:29.706Z,97968.13
2022-09-23T06:21:00.445Z,97962.19
2022-09-23T06:23:27.581Z,97969.47
2022-09-23T06:25:59.998Z,97968.91
2022-09-23T06:28:30.358Z,97965.41
2022-09-23T06:30:58.058Z,97961.66
2022-09-23T06:33:35.269Z,97965.94
2022-09-23T06:36:05.811Z,97959.75
2022-09-23T06:38:33.179Z,97967.84
2022-09-23T06:41:00.951Z,97971.38
2022-09-23T06:43:28.040Z,97966.78
2022-09-23T06:45:58.004Z,97969.75
2022-09-23T06:48:25.719Z,97959.22
2022-09-23T06:50:53.411Z,97968.13
2022-09-23T06:53:21.844Z,97971.91
2022-09-23T06:55:49.036Z,97981.31
2022-09-23T06:58:16.143Z,97974.59
2022-09-23T07:00:43.223Z,97977.28
2022-09-23T07:03:12.017Z,97972.44
2022-09-23T07:05:39.105Z,97981.88
2022-09-23T07:08:07.516Z,97984.59
2022-09-23T07:10:34.728Z,97980.00
2022-09-23T07:13:01.940Z,97979.72
2022-09-23T07:15:29.270Z,97980.00
2022-09-23T07:17:56.359Z,97982.97
2022-09-23T07:20:24.810Z,97977.28
2022-09-23T07:22:52.494Z,97971.91
2022-09-23T07:25:19.678Z,97980.00
2022-09-23T07:27:46.787Z,97981.84
2022-09-23T07:30:23.296Z,97982.97
2022-09-23T07:32:52.054Z,97975.13
2022-09-23T07:35:19.716Z,97973.50
2022-09-23T07:37:50.168Z,97981.59
2022-09-23T07:40:17.592Z,97981.31
2022-09-23T07:42:44.711Z,97978.09
2022-09-23T07:45:11.791Z,97976.75
2022-09-23T07:47:38.879Z,97982.41
2022-09-23T07:50:07.653Z,97980.25
2022-09-23T07:52:35.741Z,97974.59
2022-09-23T07:55:05.536Z,97980.78
2022-09-23T07:57:33.728Z,97976.75
2022-09-23T08:00:00.887Z,97975.66
2022-09-23T08:02:28.089Z,97973.50
2022-09-23T08:04:55.235Z,97975.13
2022-09-23T08:07:22.316Z,97972.44
2022-09-23T08:09:49.403Z,97972.44
2022-09-23T08:12:18.988Z,97974.88
2022-09-23T08:14:46.072Z,97972.97
2022-09-23T08:17:13.181Z,97971.06
2022-09-23T08:19:40.299Z,97975.94
2022-09-23T08:22:07.760Z,97976.50
2022-09-23T08:24:34.834Z,97978.34
2022-09-23T08:27:02.099Z,97972.44
2022-09-23T08:29:30.532Z,97971.63
2022-09-23T08:31:57.608Z,97977.28
2022-09-23T08:34:27.504Z,97979.47
2022-09-23T08:36:54.603Z,97978.66
2022-09-23T08:39:21.708Z,97967.06
2022-09-23T08:42:03.190Z,97967.88
2022-09-23T08:44:43.252Z,97970.31
2022-09-23T08:47:19.120Z,97969.75
2022-09-23T08:49:59.197Z,97966.25
2022-09-23T08:52:32.900Z,97961.13
2022-09-23T08:55:01.127Z,97960.03
2022-09-23T08:57:39.087Z,97956.25
2022-09-23T09:00:16.348Z,97951.69
2022-09-23T09:02:43.602Z,97953.56
2022-09-23T09:05:12.703Z,97950.59
2022-09-23T09:07:41.280Z,97953.31
2022-09-23T09:10:15.644Z,97946.53
2022-09-23T09:12:46.149Z,97946.53
2022-09-23T09:15:16.794Z,97942.00
2022-09-23T09:17:55.984Z,97957.34
2022-09-23T09:20:29.799Z,97949.25
2022-09-23T09:22:58.099Z,97953.03
2022-09-23T09:25:37.519Z,97950.59
2022-09-23T09:28:15.153Z,97946.00
2022-09-23T09:30:48.354Z,97942.78
2022-09-23T09:33:18.989Z,97950.06
2022-09-23T09:36:01.064Z,97933.38
2022-09-23T09:38:28.323Z,97929.03
2022-09-23T09:41:05.454Z,97925.56
2022-09-23T09:43:32.659Z,97922.31
2022-09-23T09:46:16.401Z,97924.75
2022-09-23T09:48:52.215Z,97925.00
2022-09-23T09:51:21.084Z,97922.56
2022-09-23T09:53:48.155Z,97926.06
2022-09-23T09:56:16.109Z,97921.50
2022-09-23T09:58:47.753Z,97918.78
2022-09-23T10:01:20.863Z,97918.78
2022-09-23T10:03:49.477Z,97906.91
2022-09-23T10:06:20.211Z,97906.91
2022-09-23T10:09:04.015Z,97890.75
2022-09-23T10:11:32.406Z,97894.78
2022-09-23T10:14:11.057Z,97897.75
2022-09-23T10:16:40.366Z,97883.75
2022-09-23T10:19:17.119Z,97886.44
2022-09-23T10:21:50.799Z,97886.97
2022-09-23T10:24:22.375Z,97887.50
2022-09-23T10:26:53.549Z,97881.59
2022-09-23T10:29:24.038Z,97874.06
2022-09-23T10:32:17.564Z,97877.56
2022-09-23T10:34:46.127Z,97879.47
2022-09-23T10:37:17.409Z,97874.88
2022-09-23T10:39:44.593Z,97866.25
2022-09-23T10:42:21.302Z,97862.44
2022-09-23T10:45:01.304Z,97862.44
2022-09-23T10:47:39.250Z,97857.31
2022-09-23T10:50:24.149Z,97859.97
2022-09-23T10:53:04.722Z,97853.53
2022-09-23T10:55:41.066Z,97844.91
2022-09-23T10:58:26.738Z,97840.56
2022-09-23T11:01:06.530Z,97838.66
2022-09-23T11:03:54.606Z,97835.72
2022-09-23T11:06:29.700Z,97827.38
2022-09-23T11:09:14.524Z,97825.19
2022-09-23T11:11:54.729Z,97828.41
2022-09-23T11:14:36.540Z,97837.88
2022-09-23T11:17:21.003Z,97837.09
2022-09-23T11:20:02.775Z,97836.50
2022-09-23T11:22:47.750Z,97827.63
2022-09-23T11:25:26.627Z,97826.56
2022-09-23T11:28:12.116Z,97819.53
2022-09-23T11:30:50.023Z,97817.94
2022-09-23T11:33:33.884Z,97818.50
2022-09-23T11:36:04.751Z,97816.06
2022-09-23T11:38:38.749Z,97809.81
2022-09-23T11:41:14.883Z,97802.25
2022-09-23T11:43:43.804Z,97797.13
2022-09-23T11:46:19.935Z,97799.28
2022-09-23T11:48:55.748Z,97793.88
2022-09-23T11:51:26.960Z,97788.50
2022-09-23T11:54:00.569Z,97785.28
2022-09-23T11:56:36.177Z,97793.38
2022-09-23T11:59:13.934Z,97783.38
2022-09-23T12:01:46.953Z,97782.31
2022-09-23T12:04:23.392Z,97785.22
2022-09-23T12:06:57.004Z,97774.44
2022-09-23T12:09:54.144Z,97767.44
2022-09-23T12:12:27.320Z,97774.75
2022-09-23T12:14:59.755Z,97759.88
2022-09-23T12:17:44.731Z,97758.78
2022-09-23T12:20:35.357Z,97757.09
2022-09-23T12:23:19.141Z,97755.22
2022-09-23T12:25:51.994Z,97756.31
2022-09-23T12:28:22.911Z,97747.41
2022-09-23T12:30:53.274Z,97748.19
2022-09-23T12:33:23.554Z,97751.09
2022-09-23T12:35:52.716Z,97739.53
2022-09-23T12:38:23.850Z,97744.13
2022-09-23T12:40:53.997Z,97738.19
2022-09-23T12:43:29.551Z,97733.31
2022-09-23T12:46:18.371Z,97728.72
2022-09-23T12:48:48.072Z,97732.22
2022-09-23T12:51:20.321Z,97728.19
2022-09-23T12:53:56.868Z,97728.44
2022-09-23T12:56:28.541Z,97719.84
2022-09-23T12:58:59.914Z,97719.84
2022-09-23T13:01:28.260Z,97712.78
2022-09-23T13:03:57.244Z,97705.25
2022-09-23T13:06:35.828Z,97702.81
2022-09-23T13:09:03.043Z,97703.03
2022-09-23T13:11:32.853Z,97700.59
2022-09-23T13:14:04.964Z,97697.63
2022-09-23T13:16:34.744Z,97697.63
2022-09-23T13:19:03.141Z,97693.53
2022-09-23T13:22:09.732Z,97694.06
2022-09-23T13:24:40.689Z,97686.22
2022-09-23T13:27:17.611Z,97685.94
2022-09-23T13:29:49.595Z,97684.53
2022-09-23T13:32:19.785Z,97682.63
2022-09-23T13:34:54.823Z,97676.69
2022-09-23T13:37:24.573Z,97678.84
2022-09-23T13:39:51.754Z,97663.47
2022-09-23T13:42:25.904Z,97672.59
2022-09-23T13:44:54.067Z,97667.56
2022-09-23T13:47:21.353Z,97662.41
2022-09-23T13:49:48.647Z,97670.44
2022-09-23T13:52:24.570Z,97670.44
2022-09-23T13:54:51.709Z,97658.03
2022-09-23T13:57:27.836Z,97666.13
2022-09-23T14:00:00.043Z,97659.34
2022-09-23T14:02:27.463Z,97658.75
2022-09-23T14:04:56.692Z,97659.00
2022-09-23T14:07:24.941Z,97652.44
2022-09-23T14:09:55.754Z,97646.75
2022-09-23T14:12:23.327Z,97651.53
2022-09-23T14:14:52.819Z,97639.28
2022-09-23T14:17:21.651Z,97640.38
2022-09-23T14:19:49.873Z,97630.06
2022-09-23T14:22:24.790Z,97629.22
2022-09-23T14:24:53.665Z,97627.03
2022-09-23T14:27:28.231Z,97626.00
2022-09-23T14:29:57.789Z,97629.47
2022-09-23T14:32:26.214Z,97623.25
2022-09-23T14:35:06.272Z,97619.75
2022-09-23T14:37:41.473Z,97618.41
2022-09-23T14:40:13.351Z,97621.63
2022-09-23T14:42:43.132Z,97620.28
2022-09-23T14:45:16.010Z,97613.25
2022-09-23T14:47:46.672Z,97615.44
2022-09-23T14:50:19.835Z,97620.56
2022-09-23T14:52:49.078Z,97613.84
2022-09-23T14:55:16.849Z,97617.06
2022-09-23T14:57:45.333Z,97615.16
2022-09-23T15:00:18.326Z,97605.16
2022-09-23T15:02:57.327Z,97606.50
2022-09-23T15:05:37.517Z,97599.09
2022-09-23T15:08:05.513Z,97591.53
2022-09-23T15:10:36.192Z,97593.63
2022-09-23T15:13:06.995Z,97594.44
2022-09-23T15:15:36.173Z,97594.44
2022-09-23T15:18:06.279Z,97589.63
2022-09-23T15:20:34.695Z,97582.31
2022-09-23T15:23:01.831Z,97583.72
2022-09-23T15:25:32.868Z,97577.28
2022-09-23T15:28:02.879Z,97586.47
2022-09-23T15:30:30.755Z,97584.34
2022-09-23T15:32:59.221Z,97576.19
2022-09-23T15:35:27.060Z,97579.47
2022-09-23T15:37:56.738Z,97580.03
2022-09-23T15:40:26.334Z,97580.56
2022-09-23T15:42:56.043Z,97581.03
2022-09-23T15:45:36.066Z,97578.28
2022-09-23T15:48:07.936Z,97579.13
2022-09-23T15:50:36.197Z,97572.44
2022-09-23T15:53:03.768Z,97567.06
2022-09-23T15:55:30.858Z,97576.31
2022-09-23T15:57:57.932Z,97567.66
2022-09-23T16:00:25.183Z,97566.03
2022-09-23T16:02:52.514Z,97567.13
2022-09-23T16:05:25.945Z,97573.22
2022-09-23T16:07:53.049Z,97570.94
2022-09-23T16:10:21.884Z,97572.47
2022-09-23T16:12:49.488Z,97567.59
2022-09-23T16:15:19.113Z,97567.34
2022-09-23T16:17:46.410Z,97567.06
2022-09-23T16:20:14.656Z,97571.13
2022-09-23T16:22:43.212Z,97559.78
2022-09-23T16:25:12.024Z,97557.13
2022-09-23T16:27:39.134Z,97554.94
2022-09-23T16:30:07.956Z,97545.31
2022-09-23T16:32:35.051Z,97553.16
2022-09-23T16:35:02.171Z,97555.34
2022-09-23T16:37:29.275Z,97550.56
2022-09-23T16:39:57.708Z,97558.66
2022-09-23T16:42:24.876Z,97560.03
2022-09-23T16:44:51.993Z,97566.50
2022-09-23T16:47:19.066Z,97567.38
2022-09-23T16:49:46.261Z,97566.50
2022-09-23T16:52:13.391Z,97575.72
2022-09-23T16:54:40.751Z,97569.84
2022-09-23T16:57:09.380Z,97569.56
2022-09-23T16:59:36.474Z,97568.28
2022-09-23T17:02:03.631Z,97564.19
2022-09-23T17:04:30.797Z,97560.19
2022-09-23T17:06:58.413Z,97556.38
2022-09-23T17:09:28.323Z,97560.19
2022-09-23T17:12:01.580Z,97554.78
2022-09-23T17:14:30.980Z,97562.88
2022-09-23T17:16:58.441Z,97558.56
2022-09-23T17:19:25.536Z,97559.38
2022-09-23T17:21:53.597Z,97553.22
2022-09-23T17:24:20.953Z,97561.50
2022-09-23T17:26:52.135Z,97562.09
2022-09-23T17:29:20.326Z,97566.66
2022-09-23T17:31:48.824Z,97562.59
2022-09-23T17:34:16.148Z,97565.06
2022-09-23T17:36:43.268Z,97559.91
2022-09-23T17:39:10.630Z,97567.16
2022-09-23T17:41:37.723Z,97566.09
2022-09-23T17:44:05.082Z,97560.69
2022-09-23T17:46:32.196Z,97566.84
2022-09-23T17:49:00.625Z,97573.03
2022-09-23T17:51:27.747Z,97566.84
2022-09-23T17:53:54.966Z,97562.28
2022-09-23T17:56:24.045Z,97560.94
2022-09-23T17:58:52.747Z,97560.13
2022-09-23T18:01:21.837Z,97560.13
2022-09-23T18:03:53.736Z,97560.94
2022-09-23T18:06:24.056Z,97558.81
2022-09-23T18:08:52.071Z,97567.41
2022-09-23T18:11:21.289Z,97563.66
2022-09-23T18:13:50.291Z,97565.31
2022-09-23T18:16:17.956Z,97569.88
2022-09-23T18:18:49.906Z,97578.47
2022-09-23T18:21:17.025Z,97583.06
2022-09-23T18:23:45.485Z,97578.53
2022-09-23T18:26:13.828Z,97578.78
2022-09-23T18:28:41.031Z,97583.38
2022-09-23T18:31:08.441Z,97577.16
2022-09-23T18:33:35.869Z,97575.25
2022-09-23T18:36:03.481Z,97584.97
2022-09-23T18:38:30.586Z,97581.69
2022-09-23T18:40:59.640Z,97580.06
2022-09-23T18:43:34.730Z,97582.44
2022-09-23T18:46:07.179Z,97577.56
2022-09-23T18:48:34.902Z,97568.41
2022-09-23T18:51:01.975Z,97571.63
2022-09-23T18:53:29.075Z,97569.44
2022-09-23T18:55:56.903Z,97569.41
2022-09-23T18:58:25.380Z,97565.97
2022-09-23T19:00:52.551Z,97560.28
2022-09-23T19:03:19.873Z,97562.16
2022-09-23T19:05:46.964Z,97563.78
2022-09-23T19:08:14.037Z,97563.50
2022-09-23T19:10:41.149Z,97565.09
2022-09-23T19:13:08.260Z,97566.13
2022-09-23T19:15:36.708Z,97563.94
2022-09-23T19:18:04.103Z,97562.06
2022-09-23T19:20:31.194Z,97566.09
2022-09-23T19:22:58.263Z,97561.50
2022-09-23T19:25:25.359Z,97564.69
2022-09-23T19:27:52.435Z,97559.53
2022-09-23T19:30:19.554Z,97555.69
2022-09-23T19:32:47.994Z,97565.41
2022-09-23T19:35:15.153Z,97567.00
2022-09-23T19:37:42.226Z,97568.09
2022-09-23T19:40:10.317Z,97568.66
2022-09-23T19:42:37.428Z,97572.72
2022-09-23T19:45:05.310Z,97564.91
2022-09-23T19:47:32.424Z,97569.19
2022-09-23T19:50:00.901Z,97571.09
2022-09-23T19:52:27.999Z,97565.69
2022-09-23T19:54:55.106Z,97562.47
2022-09-23T19:57:22.208Z,97564.06
2022-09-23T19:59:49.269Z,97558.69
2022-09-23T20:02:16.678Z,97556.28
2022-09-23T20:04:43.854Z,97555.13
2022-09-23T20:07:12.296Z,97552.69
2022-09-23T20:09:39.402Z,97553.19
2022-09-23T20:12:06.502Z,97557.31
2022-09-23T20:14:33.593Z,97562.19
2022-09-23T20:17:00.700Z,97564.66
2022-09-23T20:19:27.954Z,97560.94
2022-09-23T20:21:55.024Z,97561.72
2022-09-23T20:24:23.710Z,97559.81
2022-09-23T20:26:50.800Z,97562.25
2022-09-23T20:29:17.968Z,97564.94
2022-09-23T20:31:45.126Z,97563.34
2022-09-23T20:34:12.480Z,97559.81
2022-09-23T20:36:40.292Z,97554.75
2022-09-23T20:39:07.615Z,97548.78
2022-09-23T20:41:36.900Z,97553.69
2022-09-23T20:44:05.900Z,97559.38
2022-09-23T20:46:33.663Z,97556.69
2022-09-23T20:49:01.049Z,97555.84
2022-09-23T20:51:28.153Z,97545.94
2022-09-23T20:53:55.289Z,97542.13
2022-09-23T20:56:23.278Z,97543.50
2022-09-23T20:58:51.773Z,97553.78
2022-09-23T21:01:19.124Z,97546.03
2022-09-23T21:03:48.596Z,97546.31
2022-09-23T21:06:17.044Z,97541.16
2022-09-23T21:08:44.158Z,97552.75
2022-09-23T21:11:12.915Z,97549.78
2022-09-23T21:13:40.033Z,97551.38
2022-09-23T21:16:10.901Z,97540.88
2022-09-23T21:18:38.263Z,97539.50
2022-09-23T21:21:06.348Z,97543.59
2022-09-23T21:23:35.343Z,97533.59
2022-09-23T21:26:03.240Z,97530.63
2022-09-23T21:28:31.032Z,97538.72
2022-09-23T21:30:59.167Z,97535.78
2022-09-23T21:33:28.180Z,97540.34
2022-09-23T21:35:56.320Z,97531.72
2022-09-23T21:38:24.104Z,97537.44
2022-09-23T21:40:58.393Z,97539.03
2022-09-23T21:43:25.745Z,97530.94
2022-09-23T21:45:56.548Z,97535.28
2022-09-23T21:48:23.640Z,97534.50
2022-09-23T21:50:56.670Z,97538.03
2022-09-23T21:53:23.938Z,97533.75
2022-09-23T21:55:51.259Z,97534.50
2022-09-23T21:58:18.352Z,97525.31
2022-09-23T22:00:45.506Z,97526.66
2022-09-23T22:03:12.639Z,97533.63
2022-09-23T22:05:39.830Z,97533.91
2022-09-23T22:08:08.239Z,97540.94
2022-09-23T22:10:35.889Z,97534.44
2022-09-23T22:13:03.341Z,97529.56
2022-09-23T22:15:30.792Z,97532.56
2022-09-23T22:17:57.864Z,97534.75
2022-09-23T22:20:24.950Z,97535.28
2022-09-23T22:22:52.028Z,97537.44
2022-09-23T22:25:20.501Z,97536.09
2022-09-23T22:27:47.644Z,97530.78
2022-09-23T22:30:14.897Z,97531.03
2022-09-23T22:32:42.048Z,97531.31
2022-09-23T22:35:10.676Z,97532.94
2022-09-23T22:37:38.008Z,97530.53
2022-09-23T22:40:06.738Z,97538.63
2022-09-23T22:42:35.294Z,97533.50
2022-09-23T22:45:02.595Z,97525.13
2022-09-23T22:47:29.714Z,97528.91
2022-09-23T22:49:56.808Z,97520.03
2022-09-23T22:52:23.878Z,97514.28
2022-09-23T22:54:51.438Z,97519.47
2022-09-23T22:57:19.279Z,97510.50
2022-09-23T22:59:47.748Z,97507.56
2022-09-23T23:02:15.317Z,97495.47
2022-09-23T23:04:42.792Z,97488.44
2022-09-23T23:07:09.863Z,97497.91
2022-09-23T23:09:36.956Z,97500.81
2022-09-23T23:12:04.327Z,97495.41
2022-09-23T23:14:31.433Z,97502.78
2022-09-23T23:16:59.878Z,97489.22
2022-09-23T23:19:27.054Z,97488.19
2022-09-23T23:21:54.152Z,97500.88
2022-09-23T23:24:22.680Z,97500.34
2022-09-23T23:26:50.564Z,97510.28
2022-09-23T23:29:19.418Z,97502.50
2022-09-23T23:31:47.158Z,97501.97
2022-09-23T23:34:17.638Z,97503.84
2022-09-23T23:36:46.202Z,97502.03
2022-09-23T23:39:14.321Z,97502.81
2022-09-23T23:41:41.833Z,97506.91
2022-09-23T23:44:09.057Z,97499.56
2022-09-23T23:46:36.328Z,97496.81
2022-09-23T23:49:04.127Z,97500.88
2022-09-23T23:51:32.598Z,97502.78
2022-09-23T23:54:00.038Z,97497.06
2022-09-23T23:56:27.786Z,97494.38
2022-09-23T23:58:55.683Z,97483.91
